createdAt,value
2019-02-07T00:00:52.443Z,-6.70
2019-02-07T00:03:21.554Z,-6.70
2019-02-07T00:05:50.727Z,-6.80
2019-02-07T00:08:19.947Z,-6.80
2019-02-07T00:10:48.843Z,-6.80
2019-02-07T00:13:17.730Z,-6.80
2019-02-07T00:15:46.625Z,-6.80
2019-02-07T00:18:15.719Z,-6.80
2019-02-07T00:20:45.226Z,-6.70
2019-02-07T00:23:14.519Z,-6.70
2019-02-07T00:25:43.623Z,-6.70
2019-02-07T00:28:12.623Z,-6.70
2019-02-07T00:30:42.123Z,-6.70
2019-02-07T00:33:11.167Z,-6.70
2019-02-07T00:35:40.217Z,-6.70
2019-02-07T00:38:11.358Z,-6.80
2019-02-07T00:40:40.234Z,-6.80
2019-02-07T00:43:09.860Z,-6.80
2019-02-07T00:45:38.955Z,-6.80
2019-02-07T00:48:07.950Z,-6.80
2019-02-07T00:50:37.147Z,-6.90
2019-02-07T00:53:06.402Z,-6.90
2019-02-07T00:55:35.444Z,-6.90
2019-02-07T00:58:04.628Z,-6.90
2019-02-07T01:00:33.750Z,-6.90
2019-02-07T01:03:02.606Z,-6.90
2019-02-07T01:05:31.729Z,-7.00
2019-02-07T01:08:01.008Z,-7.00
2019-02-07T01:10:31.045Z,-7.00
2019-02-07T01:13:00.141Z,-7.10
2019-02-07T01:15:29.851Z,-7.10
2019-02-07T01:17:58.830Z,-7.10
2019-02-07T01:20:28.175Z,-7.10
2019-02-07T01:22:57.755Z,-7.20
2019-02-07T01:25:27.048Z,-7.20
2019-02-07T01:27:56.049Z,-7.30
2019-02-07T01:30:29.345Z,-7.30
2019-02-07T01:32:58.337Z,-7.30
2019-02-07T01:35:27.217Z,-7.20
2019-02-07T01:37:56.941Z,-7.20
2019-02-07T01:40:25.934Z,-7.20
2019-02-07T01:42:55.850Z,-7.30
2019-02-07T01:45:25.564Z,-7.30
2019-02-07T01:47:54.453Z,-7.30
2019-02-07T01:50:24.958Z,-7.40
2019-02-07T01:52:54.899Z,-7.30
2019-02-07T01:55:23.878Z,-7.30
2019-02-07T01:57:52.886Z,-7.30
2019-02-07T02:00:21.881Z,-7.30
2019-02-07T02:02:51.393Z,-7.30
2019-02-07T02:05:21.888Z,-7.20
2019-02-07T02:07:51.361Z,-7.20
2019-02-07T02:10:30.144Z,-7.20
2019-02-07T02:12:58.971Z,-7.30
2019-02-07T02:15:28.222Z,-7.20
2019-02-07T02:17:57.540Z,-7.10
2019-02-07T02:20:27.248Z,-7.10
2019-02-07T02:22:57.165Z,-6.90
2019-02-07T02:25:26.668Z,-6.80
2019-02-07T02:27:55.764Z,-6.60
2019-02-07T02:30:33.109Z,-6.50
2019-02-07T02:33:02.642Z,-6.50
2019-02-07T02:35:31.771Z,-6.40
2019-02-07T02:38:00.766Z,-6.40
2019-02-07T02:40:29.830Z,-6.30
2019-02-07T02:42:58.740Z,-6.30
2019-02-07T02:45:37.270Z,-6.40
2019-02-07T02:47:58.880Z,-6.30
2019-02-07T02:50:28.282Z,-6.30
2019-02-07T02:52:57.179Z,-6.20
2019-02-07T02:55:36.412Z,-6.20
2019-02-07T02:58:06.120Z,-6.10
2019-02-07T03:00:48.631Z,-6.10
2019-02-07T03:03:21.924Z,-6.00
2019-02-07T03:06:08.634Z,-6.00
2019-02-07T03:08:39.676Z,-6.00
2019-02-07T03:11:25.575Z,-6.00
2019-02-07T03:13:59.190Z,-5.90
2019-02-07T03:16:32.859Z,-5.90
2019-02-07T03:19:06.270Z,-6.00
2019-02-07T03:21:36.683Z,-6.00
2019-02-07T03:24:10.505Z,-5.90
2019-02-07T03:26:41.039Z,-5.90
2019-02-07T03:29:11.572Z,-5.90
2019-02-07T03:31:45.270Z,-6.00
2019-02-07T03:34:24.755Z,-6.00
2019-02-07T03:37:04.455Z,-5.90
2019-02-07T03:39:41.333Z,-6.00
2019-02-07T03:42:12.993Z,-5.90
2019-02-07T03:44:49.162Z,-5.90
2019-02-07T03:47:19.681Z,-5.90
2019-02-07T03:50:02.209Z,-5.90
2019-02-07T03:52:35.652Z,-5.90
2019-02-07T03:55:23.507Z,-5.80
2019-02-07T03:58:03.022Z,-5.80
2019-02-07T04:00:33.601Z,-5.90
2019-02-07T04:03:19.079Z,-5.90
2019-02-07T04:05:52.357Z,-5.90
2019-02-07T04:08:39.162Z,-5.90
2019-02-07T04:11:09.652Z,-5.90
2019-02-07T04:13:55.589Z,-5.80
2019-02-07T04:16:35.344Z,-5.80
2019-02-07T04:19:05.766Z,-5.80
2019-02-07T04:21:49.341Z,-5.80
2019-02-07T04:24:20.161Z,-5.70
2019-02-07T04:26:50.682Z,-5.70
2019-02-07T04:29:21.315Z,-5.60
2019-02-07T04:32:06.798Z,-5.60
2019-02-07T04:34:37.329Z,-5.60
2019-02-07T04:37:10.727Z,-5.50
2019-02-07T04:39:44.331Z,-5.50
2019-02-07T04:42:20.854Z,-5.50
2019-02-07T04:44:51.436Z,-5.40
2019-02-07T04:47:22.756Z,-5.50
2019-02-07T04:50:02.523Z,-5.50
2019-02-07T04:52:45.135Z,-5.50
2019-02-07T04:55:15.872Z,-5.40
2019-02-07T04:57:52.442Z,-5.30
2019-02-07T05:00:38.130Z,-5.20
2019-02-07T05:03:08.637Z,-5.20
2019-02-07T05:05:39.334Z,-5.20
2019-02-07T05:08:26.826Z,-5.20
2019-02-07T05:11:15.473Z,-5.20
2019-02-07T05:13:55.126Z,-5.10
2019-02-07T05:16:39.221Z,-5.20
2019-02-07T05:19:20.141Z,-5.10
2019-02-07T05:21:54.561Z,-5.10
2019-02-07T05:24:34.102Z,-5.00
2019-02-07T05:27:05.554Z,-5.00
2019-02-07T05:29:42.236Z,-5.00
2019-02-07T05:32:22.163Z,-5.00
2019-02-07T05:34:55.838Z,-5.00
2019-02-07T05:37:42.778Z,-5.00
2019-02-07T05:40:16.810Z,-5.00
2019-02-07T05:42:47.341Z,-5.00
2019-02-07T05:45:32.806Z,-5.00
2019-02-07T05:48:03.350Z,-5.00
2019-02-07T05:50:40.643Z,-5.00
2019-02-07T05:53:20.179Z,-5.00
2019-02-07T05:56:08.935Z,-4.90
2019-02-07T05:58:48.477Z,-5.00
2019-02-07T06:01:35.157Z,-4.90
2019-02-07T06:04:06.234Z,-4.90
2019-02-07T06:06:36.950Z,-4.90
2019-02-07T06:09:10.511Z,-4.90
2019-02-07T06:11:59.529Z,-4.90
2019-02-07T06:14:46.034Z,-4.90
2019-02-07T06:17:33.126Z,-4.90
2019-02-07T06:20:06.668Z,-4.90
2019-02-07T06:22:53.569Z,-4.90
2019-02-07T06:25:26.561Z,-4.90
2019-02-07T06:28:09.272Z,-4.90
2019-02-07T06:30:42.871Z,-4.90
2019-02-07T06:33:30.590Z,-4.90
2019-02-07T06:36:04.319Z,-4.90
2019-02-07T06:38:38.106Z,-4.80
2019-02-07T06:41:12.537Z,-4.80
2019-02-07T06:43:52.083Z,-4.80
2019-02-07T06:46:26.504Z,-4.80
2019-02-07T06:49:06.248Z,-4.80
2019-02-07T06:51:53.264Z,-4.70
2019-02-07T06:54:39.976Z,-4.70
2019-02-07T06:57:19.822Z,-4.60
2019-02-07T06:59:59.158Z,-4.60
2019-02-07T07:02:46.380Z,-4.70
2019-02-07T07:05:17.014Z,-4.60
2019-02-07T07:07:53.280Z,-4.60
2019-02-07T07:10:36.711Z,-4.60
2019-02-07T07:13:10.314Z,-4.60
2019-02-07T07:15:40.949Z,-4.50
2019-02-07T07:18:23.549Z,-4.40
2019-02-07T07:21:12.317Z,-4.50
2019-02-07T07:23:48.783Z,-4.50
2019-02-07T07:26:19.682Z,-4.50
2019-02-07T07:28:59.470Z,-4.50
2019-02-07T07:31:33.177Z,-4.50
2019-02-07T07:34:03.807Z,-4.50
2019-02-07T07:36:34.440Z,-4.50
2019-02-07T07:39:24.733Z,-4.50
2019-02-07T07:42:07.348Z,-4.40
2019-02-07T07:44:54.157Z,-4.40
2019-02-07T07:47:41.173Z,-4.40
2019-02-07T07:50:30.247Z,-4.50
2019-02-07T07:53:15.822Z,-4.50
2019-02-07T07:55:46.351Z,-4.40
2019-02-07T07:58:22.494Z,-4.40
2019-02-07T08:01:02.041Z,-4.40
2019-02-07T08:03:35.263Z,-4.30
2019-02-07T08:06:05.984Z,-4.20
2019-02-07T08:08:39.218Z,-4.10
2019-02-07T08:11:18.927Z,-4.10
2019-02-07T08:14:04.429Z,-4.10
2019-02-07T08:16:35.037Z,-4.00
2019-02-07T08:19:17.660Z,-4.00
2019-02-07T08:21:48.282Z,-4.00
2019-02-07T08:24:35.708Z,-3.90
2019-02-07T08:27:06.445Z,-4.00
2019-02-07T08:29:52.023Z,-3.90
2019-02-07T08:32:31.466Z,-3.90
2019-02-07T08:35:20.836Z,-3.90
2019-02-07T08:37:58.124Z,-3.80
2019-02-07T08:40:28.863Z,-3.70
2019-02-07T08:43:08.361Z,-3.60
2019-02-07T08:45:39.139Z,-3.60
2019-02-07T08:48:25.951Z,-3.50
2019-02-07T08:50:56.478Z,-3.50
2019-02-07T08:53:32.640Z,-3.40
2019-02-07T08:56:14.740Z,-3.20
2019-02-07T08:58:45.142Z,-3.20
2019-02-07T09:01:21.743Z,-3.20
2019-02-07T09:04:04.252Z,-3.20
2019-02-07T09:06:49.634Z,-3.10
2019-02-07T09:09:20.264Z,-3.20
2019-02-07T09:11:50.682Z,-3.30
2019-02-07T09:14:21.323Z,-3.20
2019-02-07T09:16:55.026Z,-3.10
2019-02-07T09:19:31.906Z,-3.10
2019-02-07T09:22:08.473Z,-3.10
2019-02-07T09:24:55.730Z,-3.10
2019-02-07T09:27:38.006Z,-3.10
2019-02-07T09:30:17.544Z,-3.00
2019-02-07T09:32:54.223Z,-3.00
2019-02-07T09:35:41.647Z,-2.90
2019-02-07T09:38:28.768Z,-2.90
2019-02-07T09:41:02.052Z,-2.90
2019-02-07T09:43:45.589Z,-2.80
2019-02-07T09:46:34.661Z,-2.80
2019-02-07T09:49:20.466Z,-2.70
2019-02-07T09:52:07.570Z,-2.50
2019-02-07T09:54:40.955Z,-2.30
2019-02-07T09:57:18.052Z,-2.10
2019-02-07T09:59:48.819Z,-2.00
2019-02-07T10:02:22.491Z,-2.20
2019-02-07T10:04:53.223Z,-2.20
2019-02-07T10:07:27.029Z,-2.10
2019-02-07T10:10:09.339Z,-1.80
2019-02-07T10:12:56.340Z,-1.80
2019-02-07T10:15:42.756Z,-1.80
2019-02-07T10:18:13.906Z,-1.60
2019-02-07T10:20:47.655Z,-1.40
2019-02-07T10:23:18.225Z,-1.30
2019-02-07T10:26:05.357Z,-1.10
2019-02-07T10:28:39.176Z,-1.00
2019-02-07T10:31:19.115Z,-0.90
2019-02-07T10:34:05.825Z,-0.90
2019-02-07T10:36:36.264Z,-1.10
2019-02-07T10:39:12.825Z,-1.30
2019-02-07T10:41:59.126Z,-1.40
2019-02-07T10:44:39.074Z,-1.30
2019-02-07T10:47:26.295Z,-1.30
2019-02-07T10:50:09.116Z,-1.10
2019-02-07T10:52:40.150Z,-0.90
2019-02-07T10:55:23.693Z,-0.60
2019-02-07T10:57:54.739Z,-0.60
2019-02-07T11:00:42.467Z,-0.40
2019-02-07T11:03:21.888Z,-0.30
2019-02-07T11:06:08.921Z,-0.50
2019-02-07T11:08:49.896Z,-0.60
2019-02-07T11:11:26.572Z,-0.50
2019-02-07T11:13:57.327Z,-0.70
2019-02-07T11:16:34.084Z,-0.60
2019-02-07T11:19:21.699Z,-0.50
2019-02-07T11:21:52.576Z,-0.60
2019-02-07T11:24:25.615Z,-0.60
2019-02-07T11:27:12.699Z,-0.60
2019-02-07T11:29:46.663Z,-0.50
2019-02-07T11:32:32.645Z,-0.40
2019-02-07T11:35:12.614Z,-0.50
2019-02-07T11:38:01.888Z,-0.30
2019-02-07T11:40:47.472Z,-0.50
2019-02-07T11:43:18.407Z,-0.50
2019-02-07T11:45:52.111Z,-0.50
2019-02-07T11:48:23.154Z,-0.60
2019-02-07T11:50:53.788Z,-0.40
2019-02-07T11:53:27.600Z,-0.40
2019-02-07T11:56:04.359Z,-0.30
2019-02-07T11:58:53.534Z,-0.20
2019-02-07T12:01:33.079Z,-0.10
2019-02-07T12:04:20.197Z,-0.30
2019-02-07T12:06:58.919Z,-0.50
2019-02-07T12:09:32.403Z,-0.50
2019-02-07T12:12:19.338Z,-0.50
2019-02-07T12:15:02.828Z,-0.50
2019-02-07T12:17:33.616Z,-0.50
2019-02-07T12:20:20.620Z,-0.50
2019-02-07T12:22:54.690Z,-0.40
2019-02-07T12:25:25.371Z,-0.30
2019-02-07T12:27:56.825Z,-0.30
2019-02-07T12:30:30.936Z,-0.30
2019-02-07T12:33:17.341Z,-0.30
2019-02-07T12:35:54.215Z,-0.30
2019-02-07T12:38:27.821Z,-0.40
2019-02-07T12:41:07.988Z,-0.30
2019-02-07T12:43:38.607Z,-0.20
2019-02-07T12:46:15.490Z,-0.10
2019-02-07T12:48:55.333Z,-0.30
2019-02-07T12:51:31.904Z,-0.20
2019-02-07T12:54:06.331Z,-0.10
2019-02-07T12:56:39.928Z,-0.10
2019-02-07T12:59:26.042Z,-0.10
2019-02-07T13:01:59.839Z,-0.10
2019-02-07T13:04:30.571Z,-0.20
2019-02-07T13:07:07.373Z,-0.20
2019-02-07T13:09:38.297Z,-0.30
2019-02-07T13:12:23.068Z,-0.20
2019-02-07T13:15:03.055Z,-0.20
2019-02-07T13:17:52.084Z,-0.20
2019-02-07T13:20:28.144Z,-0.30
2019-02-07T13:23:15.568Z,-0.30
2019-02-07T13:25:49.068Z,-0.40
2019-02-07T13:28:34.344Z,-0.40
2019-02-07T13:31:14.104Z,-0.50
2019-02-07T13:33:44.808Z,-0.50
2019-02-07T13:36:31.425Z,-0.50
2019-02-07T13:39:01.955Z,-0.50
2019-02-07T13:41:32.427Z,-0.40
2019-02-07T13:44:02.883Z,-0.40
2019-02-07T13:46:40.292Z,-0.30
2019-02-07T13:49:16.946Z,-0.30
2019-02-07T13:52:00.000Z,-0.40
2019-02-07T13:54:33.392Z,-0.30
2019-02-07T13:57:09.957Z,-0.30
2019-02-07T13:59:41.102Z,-0.30
2019-02-07T14:02:15.092Z,-0.30
2019-02-07T14:04:51.481Z,-0.30
2019-02-07T14:07:31.037Z,-0.30
2019-02-07T14:10:13.704Z,-0.30
2019-02-07T14:12:56.352Z,-0.30
2019-02-07T14:15:29.504Z,-0.30
2019-02-07T14:18:09.699Z,-0.20
2019-02-07T14:20:58.474Z,-0.20
2019-02-07T14:23:29.886Z,-0.20
2019-02-07T14:26:06.589Z,-0.20
2019-02-07T14:28:37.241Z,-0.20
2019-02-07T14:31:11.827Z,-0.20
2019-02-07T14:33:45.102Z,-0.10
2019-02-07T14:36:34.024Z,-0.10
2019-02-07T14:39:13.748Z,-0.10
2019-02-07T14:41:54.251Z,-0.10
2019-02-07T14:44:24.842Z,-0.10
2019-02-07T14:46:53.834Z,-0.10
2019-02-07T14:49:22.742Z,0.00
2019-02-07T14:51:51.928Z,0.00
2019-02-07T14:54:21.248Z,0.00
2019-02-07T14:56:51.015Z,0.00
2019-02-07T14:59:20.052Z,0.00
2019-02-07T15:01:49.132Z,0.00
2019-02-07T15:04:18.333Z,0.10
2019-02-07T15:06:47.396Z,0.10
2019-02-07T15:09:16.627Z,0.10
2019-02-07T15:11:45.625Z,0.10
2019-02-07T15:14:14.312Z,0.10
2019-02-07T15:16:43.509Z,0.10
2019-02-07T15:19:14.449Z,0.20
2019-02-07T15:21:43.414Z,0.20
2019-02-07T15:24:12.656Z,0.10
2019-02-07T15:26:41.352Z,0.10
2019-02-07T15:29:10.658Z,0.20
2019-02-07T15:31:39.489Z,0.20
2019-02-07T15:34:08.605Z,0.20
2019-02-07T15:36:37.921Z,0.20
2019-02-07T15:39:09.369Z,0.20
2019-02-07T15:41:38.364Z,0.20
2019-02-07T15:44:07.826Z,0.20
2019-02-07T15:46:36.768Z,0.30
2019-02-07T15:49:05.639Z,0.30
2019-02-07T15:51:34.496Z,0.30
2019-02-07T15:54:04.265Z,0.30
2019-02-07T15:56:33.184Z,0.20
2019-02-07T15:59:20.057Z,0.20
2019-02-07T16:01:53.457Z,0.30
2019-02-07T16:04:24.264Z,0.30
2019-02-07T16:06:53.158Z,0.30
2019-02-07T16:09:21.922Z,0.30
2019-02-07T16:11:51.864Z,0.30
2019-02-07T16:14:21.269Z,0.30
2019-02-07T16:16:50.231Z,0.40
2019-02-07T16:19:19.495Z,0.40
2019-02-07T16:21:48.483Z,0.40
2019-02-07T16:24:17.695Z,0.40
2019-02-07T16:26:46.702Z,0.40
2019-02-07T16:29:15.610Z,0.40
2019-02-07T16:31:44.735Z,0.50
2019-02-07T16:34:14.417Z,0.40
2019-02-07T16:36:43.612Z,0.40
2019-02-07T16:39:12.737Z,0.40
2019-02-07T16:41:41.489Z,0.50
2019-02-07T16:44:10.355Z,0.50
2019-02-07T16:46:39.665Z,0.40
2019-02-07T16:49:09.056Z,0.40
2019-02-07T16:51:38.258Z,0.40
2019-02-07T16:54:08.854Z,0.40
2019-02-07T16:56:37.929Z,0.40
2019-02-07T16:59:08.065Z,0.50
2019-02-07T17:01:37.840Z,0.50
2019-02-07T17:04:07.417Z,0.50
2019-02-07T17:06:36.293Z,0.40
2019-02-07T17:09:09.922Z,0.40
2019-02-07T17:11:39.026Z,0.50
2019-02-07T17:14:08.314Z,0.40
2019-02-07T17:16:37.390Z,0.50
2019-02-07T17:19:06.511Z,0.50
2019-02-07T17:21:35.392Z,0.50
2019-02-07T17:24:04.262Z,0.50
2019-02-07T17:26:33.102Z,0.50
2019-02-07T17:29:01.972Z,0.50
2019-02-07T17:31:31.277Z,0.50
2019-02-07T17:34:00.612Z,0.50
2019-02-07T17:36:29.470Z,0.60
2019-02-07T17:38:58.782Z,0.60
2019-02-07T17:41:28.666Z,0.60
2019-02-07T17:43:57.681Z,0.60
2019-02-07T17:46:26.550Z,0.60
2019-02-07T17:48:55.783Z,0.60
2019-02-07T17:51:24.532Z,0.50
2019-02-07T17:53:53.553Z,0.60
2019-02-07T17:56:22.411Z,0.60
2019-02-07T17:58:51.477Z,0.60
2019-02-07T18:01:20.509Z,0.50
2019-02-07T18:03:49.437Z,0.50
2019-02-07T18:06:18.278Z,0.60
2019-02-07T18:08:47.218Z,0.60
2019-02-07T18:11:16.061Z,0.70
2019-02-07T18:13:44.856Z,0.60
2019-02-07T18:16:13.642Z,0.60
2019-02-07T18:18:43.263Z,0.60
2019-02-07T18:21:12.485Z,0.70
2019-02-07T18:23:41.451Z,0.70
2019-02-07T18:26:10.225Z,0.70
2019-02-07T18:28:41.786Z,0.60
2019-02-07T18:31:10.684Z,0.60
2019-02-07T18:33:41.217Z,0.60
2019-02-07T18:36:10.140Z,0.50
2019-02-07T18:38:38.897Z,0.60
2019-02-07T18:41:07.821Z,0.60
2019-02-07T18:43:36.784Z,0.50
2019-02-07T18:46:05.980Z,0.50
2019-02-07T18:48:34.739Z,0.60
2019-02-07T18:51:03.947Z,0.70
2019-02-07T18:53:32.708Z,0.70
2019-02-07T18:56:01.472Z,0.60
2019-02-07T18:58:30.572Z,0.50
2019-02-07T19:00:59.454Z,0.60
2019-02-07T19:03:28.260Z,0.60
2019-02-07T19:05:57.149Z,0.60
2019-02-07T19:08:26.434Z,0.60
2019-02-07T19:10:55.655Z,0.60
2019-02-07T19:13:24.401Z,0.60
2019-02-07T19:15:56.795Z,0.60
2019-02-07T19:18:26.960Z,0.60
2019-02-07T19:20:55.904Z,0.60
2019-02-07T19:23:25.231Z,0.60
2019-02-07T19:25:54.024Z,0.60
2019-02-07T19:28:23.118Z,0.60
2019-02-07T19:30:51.987Z,0.60
2019-02-07T19:33:22.576Z,0.60
2019-02-07T19:35:53.022Z,0.60
2019-02-07T19:38:22.142Z,0.60
2019-02-07T19:40:53.261Z,0.70
2019-02-07T19:43:22.231Z,0.70
2019-02-07T19:45:51.064Z,0.60
2019-02-07T19:48:19.966Z,0.50
2019-02-07T19:50:48.856Z,0.60
2019-02-07T19:53:19.690Z,0.50
2019-02-07T19:55:48.812Z,0.50
2019-02-07T19:58:17.945Z,0.40
2019-02-07T20:00:46.902Z,0.40
2019-02-07T20:03:17.597Z,0.50
2019-02-07T20:05:46.071Z,0.50
2019-02-07T20:08:15.177Z,0.40
2019-02-07T20:10:43.852Z,0.30
2019-02-07T20:13:12.719Z,0.50
2019-02-07T20:15:43.304Z,0.70
2019-02-07T20:18:12.846Z,0.80
2019-02-07T20:20:42.469Z,0.80
2019-02-07T20:23:11.813Z,0.70
2019-02-07T20:25:40.997Z,0.70
2019-02-07T20:28:09.839Z,0.70
2019-02-07T20:30:40.852Z,0.70
2019-02-07T20:33:10.080Z,0.70
2019-02-07T20:35:39.389Z,0.60
2019-02-07T20:38:09.297Z,0.60
2019-02-07T20:40:38.154Z,0.60
2019-02-07T20:43:07.454Z,0.40
2019-02-07T20:45:36.508Z,0.30
2019-02-07T20:48:06.576Z,0.20
2019-02-07T20:50:35.487Z,0.20
2019-02-07T20:53:05.295Z,0.10
2019-02-07T20:55:34.355Z,0.00
2019-02-07T20:58:04.218Z,0.00
2019-02-07T21:00:35.004Z,-0.10
2019-02-07T21:03:04.111Z,-0.10
2019-02-07T21:05:33.606Z,-0.10
2019-02-07T21:08:02.734Z,-0.10
2019-02-07T21:10:36.392Z,-0.10
2019-02-07T21:13:06.412Z,-0.10
2019-02-07T21:15:35.812Z,-0.10
2019-02-07T21:18:05.170Z,0.00
2019-02-07T21:20:34.269Z,0.10
2019-02-07T21:23:03.071Z,0.20
2019-02-07T21:25:49.234Z,0.20
2019-02-07T21:28:18.768Z,0.40
2019-02-07T21:30:54.242Z,0.30
2019-02-07T21:33:25.095Z,0.30
2019-02-07T21:35:55.891Z,0.50
2019-02-07T21:38:26.525Z,0.50
2019-02-07T21:40:56.029Z,0.50
2019-02-07T21:43:25.129Z,0.50
2019-02-07T21:45:54.631Z,0.40
2019-02-07T21:48:25.572Z,0.40
2019-02-07T21:50:54.745Z,0.50
2019-02-07T21:53:24.097Z,0.50
2019-02-07T21:55:53.184Z,0.50
2019-02-07T21:58:22.264Z,0.60
2019-02-07T22:00:51.567Z,0.60
2019-02-07T22:03:20.826Z,0.70
2019-02-07T22:05:50.168Z,0.70
2019-02-07T22:08:20.204Z,0.60
2019-02-07T22:10:49.384Z,0.50
2019-02-07T22:13:18.588Z,0.40
2019-02-07T22:15:47.686Z,0.30
2019-02-07T22:18:18.522Z,0.20
2019-02-07T22:20:47.722Z,0.30
2019-02-07T22:23:16.707Z,0.20
2019-02-07T22:25:45.810Z,0.10
2019-02-07T22:28:15.114Z,0.00
2019-02-07T22:30:44.212Z,0.00
2019-02-07T22:33:14.424Z,0.00
2019-02-07T22:35:43.835Z,0.00
2019-02-07T22:38:12.856Z,0.00
2019-02-07T22:40:41.820Z,0.00
2019-02-07T22:43:11.329Z,0.00
2019-02-07T22:45:40.529Z,0.00
2019-02-07T22:48:09.909Z,0.20
2019-02-07T22:50:39.029Z,0.30
2019-02-07T22:53:08.023Z,0.30
2019-02-07T22:55:37.740Z,0.30
2019-02-07T22:58:07.553Z,0.20
2019-02-07T23:00:45.351Z,0.20
2019-02-07T23:03:22.133Z,0.20
2019-02-07T23:05:51.468Z,0.30
2019-02-07T23:08:20.525Z,0.30
2019-02-07T23:10:49.619Z,0.20
2019-02-07T23:13:18.717Z,0.30
2019-02-07T23:15:47.827Z,0.20
2019-02-07T23:18:17.012Z,0.20
2019-02-07T23:20:46.315Z,0.00
2019-02-07T23:23:15.515Z,0.00
2019-02-07T23:25:44.912Z,0.00
2019-02-07T23:28:14.012Z,-0.20
2019-02-07T23:30:42.986Z,-0.50
2019-02-07T23:33:11.937Z,-0.80
2019-02-07T23:35:40.997Z,-0.90
2019-02-07T23:38:10.094Z,-1.00
2019-02-07T23:40:39.802Z,-1.00
2019-02-07T23:43:09.436Z,-1.00
2019-02-07T23:45:38.613Z,-0.90
2019-02-07T23:48:07.827Z,-0.80
2019-02-07T23:50:36.803Z,-0.80
2019-02-07T23:53:14.311Z,-0.80
2019-02-07T23:55:36.852Z,-0.90
2019-02-07T23:58:06.144Z,-0.90
